createdAt,value
2019-04-19T00:01:12.839Z,3.57
2019-04-19T00:03:22.355Z,3.70
2019-04-19T00:05:24.240Z,3.80
2019-04-19T00:07:28.984Z,3.80
2019-04-19T00:09:43.677Z,4.03
2019-04-19T00:11:43.928Z,4.00
2019-04-19T00:13:43.808Z,4.03
2019-04-19T00:15:47.734Z,4.07
2019-04-19T00:17:58.561Z,4.03
2019-04-19T00:20:23.407Z,4.10
2019-04-19T00:22:21.071Z,3.63
2019-04-19T00:24:08.045Z,3.83
2019-04-19T00:26:12.710Z,4.10
2019-04-19T00:28:24.371Z,4.03
2019-04-19T00:30:34.454Z,4.10
2019-04-19T00:32:38.327Z,3.70
2019-04-19T00:34:33.637Z,4.67
2019-04-19T00:36:38.434Z,4.30
2019-04-19T00:38:59.055Z,4.10
2019-04-19T00:41:11.621Z,4.37
2019-04-19T00:43:37.762Z,3.87
2019-04-19T00:45:58.693Z,4.07
2019-04-19T00:47:56.335Z,4.90
2019-04-19T00:50:02.873Z,5.37
2019-04-19T00:52:05.529Z,5.03
2019-04-19T00:54:11.900Z,4.63
2019-04-19T00:56:13.597Z,4.40
2019-04-19T00:58:18.379Z,4.53
2019-04-19T01:00:22.340Z,4.40
2019-04-19T01:02:24.523Z,4.30
2019-04-19T01:04:30.251Z,4.50
2019-04-19T01:06:42.038Z,4.63
2019-04-19T01:08:49.074Z,4.07
2019-04-19T01:10:59.262Z,4.23
2019-04-19T01:13:05.727Z,4.50
2019-04-19T01:15:05.718Z,4.30
2019-04-19T01:17:14.938Z,4.90
2019-04-19T01:19:09.859Z,4.67
2019-04-19T01:21:11.343Z,4.20
2019-04-19T01:23:17.068Z,4.47
2019-04-19T01:25:25.600Z,4.63
2019-04-19T01:27:29.521Z,4.80
2019-04-19T01:29:40.098Z,4.60
2019-04-19T01:31:37.687Z,5.00
2019-04-19T01:33:44.142Z,5.40
2019-04-19T01:35:51.040Z,5.60
2019-04-19T01:37:55.757Z,4.97
2019-04-19T01:40:13.498Z,4.80
2019-04-19T01:42:20.984Z,4.73
2019-04-19T01:44:29.986Z,5.60
2019-04-19T01:46:36.702Z,5.50
2019-04-19T01:48:39.256Z,4.87
2019-04-19T01:50:50.773Z,5.43
2019-04-19T01:52:58.081Z,4.97
2019-04-19T01:54:54.366Z,5.57
2019-04-19T01:56:55.644Z,5.60
2019-04-19T01:58:59.242Z,4.90
2019-04-19T02:01:03.274Z,5.60
2019-04-19T02:03:07.857Z,5.23
2019-04-19T02:05:16.389Z,4.93
2019-04-19T02:07:22.071Z,5.03
2019-04-19T02:09:34.765Z,5.07
2019-04-19T02:11:48.524Z,5.00
2019-04-19T02:13:53.216Z,5.50
2019-04-19T02:15:51.349Z,4.83
2019-04-19T02:17:54.288Z,5.50
2019-04-19T02:20:02.422Z,4.80
2019-04-19T02:22:11.294Z,5.07
2019-04-19T02:24:10.436Z,4.70
2019-04-19T02:26:18.391Z,5.30
2019-04-19T02:28:24.490Z,5.37
2019-04-19T02:30:34.061Z,5.20
2019-04-19T02:32:47.106Z,5.00
2019-04-19T02:35:04.451Z,5.47
2019-04-19T02:39:26.060Z,5.17
2019-04-19T02:41:30.338Z,4.63
2019-04-19T02:43:45.848Z,5.13
2019-04-19T02:45:29.029Z,5.43
2019-04-19T02:47:40.528Z,5.23
2019-04-19T02:51:55.473Z,6.00
2019-04-19T02:56:23.956Z,5.80
2019-04-19T02:58:34.042Z,5.67
2019-04-19T03:01:02.555Z,5.63
2019-04-19T03:05:15.025Z,5.30
2019-04-19T03:06:48.045Z,5.27
2019-04-19T03:08:46.594Z,5.00
2019-04-19T03:11:03.214Z,5.80
2019-04-19T03:13:12.839Z,5.30
2019-04-19T03:15:16.017Z,5.20
2019-04-19T03:17:23.326Z,6.10
2019-04-19T03:19:22.178Z,5.30
2019-04-19T03:21:33.091Z,5.40
2019-04-19T03:23:39.663Z,5.40
2019-04-19T03:25:40.396Z,5.70
2019-04-19T03:27:47.167Z,6.17
2019-04-19T03:29:45.274Z,6.00
2019-04-19T03:32:30.056Z,5.47
2019-04-19T03:36:22.019Z,5.20
2019-04-19T03:38:18.926Z,5.70
2019-04-19T03:40:40.058Z,5.80
2019-04-19T03:42:44.994Z,5.77
2019-04-19T03:44:49.271Z,5.23
2019-04-19T03:48:58.382Z,5.50
2019-04-19T03:51:09.882Z,5.70
2019-04-19T03:53:12.471Z,5.60
2019-04-19T03:55:21.495Z,5.57
2019-04-19T03:57:24.904Z,5.77
2019-04-19T03:59:16.209Z,6.10
2019-04-19T04:01:21.363Z,5.60
2019-04-19T04:03:31.256Z,6.20
2019-04-19T04:05:36.750Z,5.63
2019-04-19T04:07:37.123Z,5.97
2019-04-19T04:09:49.753Z,6.03
2019-04-19T04:12:02.302Z,5.50
2019-04-19T04:14:14.938Z,6.17
2019-04-19T04:16:20.635Z,6.13
2019-04-19T04:18:15.522Z,6.40
2019-04-19T04:20:19.899Z,5.70
2019-04-19T04:22:29.532Z,5.70
2019-04-19T04:24:36.230Z,6.00
2019-04-19T04:26:47.454Z,5.83
2019-04-19T04:28:52.747Z,6.10
2019-04-19T04:30:56.132Z,5.97
2019-04-19T04:33:04.639Z,6.87
2019-04-19T04:35:13.694Z,6.30
2019-04-19T04:37:20.389Z,6.10
2019-04-19T04:39:09.319Z,5.70
2019-04-19T04:41:20.099Z,6.00
2019-04-19T04:43:32.333Z,6.23
2019-04-19T04:45:57.694Z,6.27
2019-04-19T04:48:07.829Z,6.20
2019-04-19T04:50:27.424Z,5.70
2019-04-19T04:52:28.521Z,6.37
2019-04-19T04:54:27.169Z,6.43
2019-04-19T04:56:49.866Z,6.47
2019-04-19T04:58:44.043Z,6.70
2019-04-19T05:00:55.349Z,6.50
2019-04-19T05:03:06.558Z,6.33
2019-04-19T05:05:15.141Z,6.23
2019-04-19T05:07:25.703Z,6.20
2019-04-19T05:09:28.140Z,5.90
2019-04-19T05:11:31.594Z,5.97
2019-04-19T05:13:39.503Z,5.70
2019-04-19T05:15:43.306Z,6.07
2019-04-19T05:17:53.916Z,6.13
2019-04-19T05:19:56.408Z,5.93
2019-04-19T05:22:00.697Z,6.17
2019-04-19T05:24:09.336Z,6.90
2019-04-19T05:26:26.702Z,6.77
2019-04-19T05:28:18.850Z,6.00
2019-04-19T05:30:04.491Z,6.30
2019-04-19T05:32:17.640Z,6.00
2019-04-19T05:34:32.305Z,6.30
2019-04-19T05:36:41.433Z,6.27
2019-04-19T05:38:53.923Z,6.37
2019-04-19T05:40:50.070Z,7.10
2019-04-19T05:43:02.201Z,6.27
2019-04-19T05:45:26.136Z,6.47
2019-04-19T05:47:18.630Z,6.90
2019-04-19T05:49:19.984Z,6.33
2019-04-19T05:51:38.666Z,6.37
2019-04-19T05:53:30.920Z,6.53
2019-04-19T05:55:26.042Z,6.47
2019-04-19T05:57:49.021Z,6.80
2019-04-19T05:59:48.257Z,6.20
2019-04-19T06:01:55.104Z,7.23
2019-04-19T06:04:07.602Z,7.17
2019-04-19T06:06:19.914Z,7.07
2019-04-19T06:08:09.466Z,7.30
2019-04-19T06:10:06.433Z,7.20
2019-04-19T06:12:13.508Z,7.13
2019-04-19T06:14:38.837Z,7.13
2019-04-19T06:16:34.980Z,6.40
2019-04-19T06:18:36.035Z,6.57
2019-04-19T06:20:50.003Z,5.80
2019-04-19T06:23:01.047Z,6.20
2019-04-19T06:24:55.613Z,5.67
2019-04-19T06:27:13.379Z,6.00
2019-04-19T06:29:10.093Z,6.03
2019-04-19T06:31:24.210Z,6.00
2019-04-19T06:33:25.149Z,5.77
2019-04-19T06:35:23.896Z,6.60
2019-04-19T06:37:24.117Z,5.77
2019-04-19T06:39:22.857Z,6.07
2019-04-19T06:41:28.653Z,5.43
2019-04-19T06:43:43.334Z,6.07
2019-04-19T06:45:53.063Z,6.00
2019-04-19T06:47:49.899Z,5.00
2019-04-19T06:49:52.147Z,5.17
2019-04-19T06:52:01.420Z,5.37
2019-04-19T06:54:04.042Z,5.53
2019-04-19T06:56:14.461Z,4.90
2019-04-19T06:58:16.015Z,5.13
2019-04-19T07:00:30.555Z,4.90
2019-04-19T07:02:22.287Z,4.80
2019-04-19T07:04:26.113Z,4.97
2019-04-19T07:06:45.544Z,5.53
2019-04-19T07:11:10.081Z,6.60
2019-04-19T07:13:04.898Z,5.57
2019-04-19T07:15:12.342Z,4.90
2019-04-19T07:17:15.442Z,5.50
2019-04-19T07:19:24.487Z,4.90
2019-04-19T07:21:32.030Z,4.80
2019-04-19T07:23:32.498Z,4.90
2019-04-19T07:25:42.440Z,5.30
2019-04-19T07:27:36.828Z,4.67
2019-04-19T07:29:29.957Z,4.77
2019-04-19T07:31:36.348Z,5.20
2019-04-19T07:33:52.897Z,5.20
2019-04-19T07:36:07.854Z,4.73
2019-04-19T07:38:19.722Z,5.00
2019-04-19T07:40:20.522Z,5.57
2019-04-19T07:42:22.501Z,4.80
2019-04-19T07:44:32.018Z,4.97
2019-04-19T07:46:45.500Z,5.73
2019-04-19T07:48:34.417Z,6.03
2019-04-19T07:50:48.666Z,5.40
2019-04-19T07:52:53.014Z,5.23
2019-04-19T07:54:55.292Z,5.53
2019-04-19T07:57:17.119Z,5.20
2019-04-19T07:59:45.561Z,5.60
2019-04-19T08:05:52.832Z,5.70
2019-04-19T08:08:00.791Z,6.00
2019-04-19T08:14:05.484Z,5.87
2019-04-19T08:16:29.120Z,5.40
2019-04-19T08:18:20.885Z,5.20
2019-04-19T08:28:26.826Z,6.20
2019-04-19T08:30:33.892Z,5.47
2019-04-19T08:32:28.202Z,5.50
2019-04-19T08:34:32.851Z,5.53
2019-04-19T08:36:46.168Z,5.60
2019-04-19T08:39:04.168Z,5.23
2019-04-19T08:43:15.999Z,5.90
2019-04-19T08:45:11.001Z,5.80
2019-04-19T08:47:35.166Z,5.53
2019-04-19T08:49:51.964Z,6.17
2019-04-19T08:52:08.348Z,5.77
2019-04-19T08:54:32.893Z,5.73
2019-04-19T08:56:27.594Z,5.37
2019-04-19T08:58:38.884Z,6.20
2019-04-19T09:00:57.765Z,5.73
2019-04-19T09:02:45.209Z,5.97
2019-04-19T09:04:57.747Z,5.40
2019-04-19T09:07:39.868Z,5.47
2019-04-19T09:09:02.550Z,5.73
2019-04-19T09:11:14.848Z,5.23
2019-04-19T09:13:27.901Z,5.77
2019-04-19T09:15:23.911Z,5.17
2019-04-19T09:17:39.027Z,5.30
2019-04-19T09:20:00.845Z,5.60
2019-04-19T09:21:38.112Z,5.17
2019-04-19T09:23:40.416Z,5.43
2019-04-19T09:25:48.780Z,5.20
2019-04-19T09:28:11.394Z,5.53
2019-04-19T09:30:11.533Z,4.80
2019-04-19T09:32:06.620Z,5.50
2019-04-19T09:34:08.978Z,5.47
2019-04-19T09:36:13.714Z,5.40
2019-04-19T09:38:31.022Z,6.10
2019-04-19T09:40:31.667Z,5.70
2019-04-19T09:42:44.740Z,5.57
2019-04-19T09:44:41.523Z,5.30
2019-04-19T09:46:42.503Z,5.00
2019-04-19T09:49:06.077Z,5.30
2019-04-19T09:51:10.039Z,5.20
2019-04-19T09:53:25.824Z,5.50
2019-04-19T09:55:26.896Z,5.27
2019-04-19T09:57:27.948Z,5.87
2019-04-19T09:59:25.383Z,5.50
2019-04-19T10:01:21.176Z,4.50
2019-04-19T10:03:36.220Z,5.27
2019-04-19T10:05:31.110Z,5.40
2019-04-19T10:07:35.063Z,5.07
2019-04-19T10:09:38.778Z,5.40
2019-04-19T10:11:43.242Z,5.87
2019-04-19T10:13:48.072Z,5.83
2019-04-19T10:15:54.398Z,5.53
2019-04-19T10:17:58.596Z,6.13
2019-04-19T10:20:02.783Z,5.30
2019-04-19T10:22:08.398Z,5.17
2019-04-19T10:24:16.226Z,5.07
2019-04-19T10:26:22.251Z,6.20
2019-04-19T10:28:26.930Z,5.20
2019-04-19T10:30:50.526Z,6.20
2019-04-19T10:32:56.150Z,4.77
2019-04-19T10:35:01.042Z,5.57
2019-04-19T10:37:05.929Z,5.33
2019-04-19T10:39:11.953Z,5.43
2019-04-19T10:41:15.817Z,5.37
2019-04-19T10:43:19.513Z,5.37
2019-04-19T10:45:23.859Z,5.50
2019-04-19T10:47:29.360Z,5.73
2019-04-19T10:49:40.972Z,5.43
2019-04-19T10:51:43.865Z,5.53
2019-04-19T10:53:48.628Z,5.10
2019-04-19T10:55:58.182Z,5.60
2019-04-19T10:58:03.197Z,7.43
2019-04-19T11:00:09.163Z,5.93
2019-04-19T11:02:13.831Z,5.10
2019-04-19T11:04:17.648Z,5.43
2019-04-19T11:06:23.808Z,5.33
2019-04-19T11:08:28.725Z,5.40
2019-04-19T11:10:33.544Z,5.20
2019-04-19T11:12:38.514Z,5.40
2019-04-19T11:14:42.302Z,5.57
2019-04-19T11:16:47.306Z,5.47
2019-04-19T11:18:51.213Z,5.20
2019-04-19T11:20:56.293Z,5.20
2019-04-19T11:23:00.304Z,5.13
2019-04-19T11:25:05.978Z,5.03
2019-04-19T11:27:10.797Z,5.10
2019-04-19T11:29:15.605Z,4.30
2019-04-19T11:31:27.857Z,4.50
2019-04-19T11:33:33.334Z,4.77
2019-04-19T11:35:41.483Z,4.90
2019-04-19T11:37:45.336Z,4.50
2019-04-19T11:39:49.028Z,4.77
2019-04-19T11:41:52.689Z,4.30
2019-04-19T11:43:56.418Z,4.50
2019-04-19T11:46:00.425Z,4.77
2019-04-19T11:48:05.253Z,5.13
2019-04-19T11:50:11.675Z,4.90
2019-04-19T11:52:17.209Z,5.00
2019-04-19T11:54:20.923Z,4.43
2019-04-19T11:56:37.678Z,4.20
2019-04-19T11:58:40.337Z,4.00
2019-04-19T12:00:56.064Z,4.10
2019-04-19T12:03:02.273Z,4.63
2019-04-19T12:05:17.596Z,3.83
2019-04-19T12:07:12.598Z,4.30
2019-04-19T12:09:16.433Z,4.07
2019-04-19T12:11:22.381Z,4.13
2019-04-19T12:13:27.449Z,3.77
2019-04-19T12:15:32.926Z,3.83
2019-04-19T12:17:37.837Z,4.20
2019-04-19T12:19:50.363Z,4.23
2019-04-19T12:21:47.586Z,4.33
2019-04-19T12:23:51.340Z,4.17
2019-04-19T12:25:55.599Z,4.20
2019-04-19T12:27:59.705Z,3.70
2019-04-19T12:30:05.436Z,4.20
2019-04-19T12:32:09.560Z,4.13
2019-04-19T12:34:14.553Z,3.50
2019-04-19T12:36:19.237Z,3.67
2019-04-19T12:38:24.064Z,3.63
2019-04-19T12:40:29.719Z,3.87
2019-04-19T12:42:33.957Z,4.20
2019-04-19T12:44:39.079Z,3.50
2019-04-19T12:46:43.321Z,3.47
2019-04-19T12:48:48.212Z,3.03
2019-04-19T12:50:52.194Z,3.30
2019-04-19T12:52:57.979Z,3.13
2019-04-19T12:55:01.997Z,5.73
2019-04-19T12:57:05.809Z,4.00
2019-04-19T12:59:09.514Z,3.77
2019-04-19T13:01:15.266Z,3.90
2019-04-19T13:03:20.514Z,4.57
2019-04-19T13:05:28.230Z,3.10
2019-04-19T13:07:33.151Z,3.20
2019-04-19T13:09:37.210Z,3.30
2019-04-19T13:11:41.207Z,3.30
2019-04-19T13:13:45.897Z,3.30
2019-04-19T13:15:50.264Z,2.90
2019-04-19T13:17:54.102Z,2.70
2019-04-19T13:20:08.240Z,3.10
2019-04-19T13:22:04.614Z,2.90
2019-04-19T13:24:08.797Z,3.23
2019-04-19T13:26:13.528Z,2.57
2019-04-19T13:28:17.557Z,2.70
2019-04-19T13:30:32.962Z,2.70
2019-04-19T13:32:29.254Z,2.40
2019-04-19T13:34:33.540Z,2.47
2019-04-19T13:36:55.461Z,3.30
2019-04-19T13:39:17.261Z,2.73
2019-04-19T13:41:22.983Z,2.80
2019-04-19T13:43:26.857Z,2.80
2019-04-19T13:45:33.697Z,2.87
2019-04-19T13:47:36.514Z,2.47
2019-04-19T13:49:40.323Z,2.30
2019-04-19T13:51:44.834Z,2.30
2019-04-19T13:53:48.907Z,2.37
2019-04-19T13:55:52.766Z,2.10
2019-04-19T13:57:57.664Z,2.60
2019-04-19T14:00:04.149Z,2.20
2019-04-19T14:02:08.502Z,2.57
2019-04-19T14:04:13.544Z,2.77
2019-04-19T14:06:18.152Z,2.33
2019-04-19T14:08:21.994Z,2.23
2019-04-19T14:10:25.785Z,2.40
2019-04-19T14:12:29.470Z,2.50
2019-04-19T14:14:33.248Z,2.60
2019-04-19T14:16:38.048Z,2.60
2019-04-19T14:18:42.633Z,2.50
2019-04-19T14:20:49.379Z,2.10
2019-04-19T14:22:52.001Z,2.00
2019-04-19T14:24:55.965Z,2.27
2019-04-19T14:27:01.085Z,2.37
2019-04-19T14:29:05.550Z,2.50
2019-04-19T14:31:10.204Z,2.10
2019-04-19T14:33:14.909Z,2.70
2019-04-19T14:35:19.653Z,2.40
2019-04-19T14:37:23.458Z,2.83
2019-04-19T14:39:27.290Z,3.00
2019-04-19T14:41:31.621Z,2.73
2019-04-19T14:43:36.548Z,2.70
2019-04-19T14:45:40.518Z,2.40
2019-04-19T14:47:44.720Z,2.53
2019-04-19T14:49:49.103Z,2.30
2019-04-19T14:51:53.985Z,3.03
2019-04-19T14:53:58.177Z,2.53
2019-04-19T14:56:02.715Z,2.33
2019-04-19T14:58:06.381Z,2.50
2019-04-19T15:00:14.803Z,2.20
2019-04-19T15:02:26.899Z,2.53
2019-04-19T15:04:40.226Z,2.37
2019-04-19T15:06:43.921Z,2.20
2019-04-19T15:08:47.678Z,2.50
2019-04-19T15:10:51.417Z,2.80
2019-04-19T15:12:56.589Z,2.30
2019-04-19T15:15:00.369Z,2.50
2019-04-19T15:17:04.941Z,2.40
2019-04-19T15:19:08.818Z,2.90
2019-04-19T15:21:16.589Z,2.40
2019-04-19T15:23:18.317Z,3.00
2019-04-19T15:25:23.609Z,2.70
2019-04-19T15:27:28.643Z,2.60
2019-04-19T15:29:32.469Z,2.23
2019-04-19T15:31:36.470Z,2.40
2019-04-19T15:33:40.730Z,2.80
2019-04-19T15:35:45.662Z,2.47
2019-04-19T15:37:49.731Z,2.43
2019-04-19T15:39:53.877Z,2.10
2019-04-19T15:41:58.137Z,2.50
2019-04-19T15:44:01.910Z,2.77
2019-04-19T15:46:07.982Z,2.70
2019-04-19T15:48:14.031Z,2.40
2019-04-19T15:50:17.989Z,2.20
2019-04-19T15:52:22.011Z,2.13
2019-04-19T15:54:25.887Z,2.40
2019-04-19T15:56:30.121Z,2.13
2019-04-19T15:58:33.951Z,2.60
2019-04-19T16:01:05.930Z,2.47
2019-04-19T16:03:27.733Z,2.60
2019-04-19T16:05:33.883Z,2.20
2019-04-19T16:07:46.195Z,2.60
2019-04-19T16:10:06.973Z,2.53
2019-04-19T16:12:11.445Z,2.60
2019-04-19T16:14:15.435Z,2.30
2019-04-19T16:16:21.737Z,2.00
2019-04-19T16:18:24.672Z,2.23
2019-04-19T16:20:29.333Z,2.10
2019-04-19T16:22:34.087Z,1.87
2019-04-19T16:24:39.031Z,2.07
2019-04-19T16:26:42.910Z,2.13
2019-04-19T16:28:46.610Z,2.50
2019-04-19T16:30:50.465Z,2.00
2019-04-19T16:32:55.304Z,2.43
2019-04-19T16:34:59.449Z,2.70
2019-04-19T16:37:03.161Z,2.20
2019-04-19T16:39:07.751Z,2.27
2019-04-19T16:41:12.552Z,2.63
2019-04-19T16:43:17.448Z,2.00
2019-04-19T16:45:21.939Z,2.10
2019-04-19T16:47:26.993Z,2.70
2019-04-19T16:49:30.906Z,2.90
2019-04-19T16:51:42.380Z,3.13
2019-04-19T16:53:40.147Z,3.00
2019-04-19T16:55:43.867Z,2.57
2019-04-19T16:57:48.405Z,2.00
2019-04-19T16:59:52.243Z,2.33
2019-04-19T17:01:56.819Z,2.60
2019-04-19T17:04:01.670Z,2.50
2019-04-19T17:06:06.532Z,2.60
2019-04-19T17:08:11.487Z,2.03
2019-04-19T17:10:16.223Z,2.03
2019-04-19T17:12:20.928Z,2.03
2019-04-19T17:14:25.196Z,2.20
2019-04-19T17:16:37.594Z,3.10
2019-04-19T17:18:52.723Z,3.43
2019-04-19T17:21:03.920Z,3.20
2019-04-19T17:23:08.572Z,2.80
2019-04-19T17:25:13.123Z,3.30
2019-04-19T17:27:23.023Z,3.90
2019-04-19T17:29:22.675Z,2.57
2019-04-19T17:31:26.767Z,3.17
2019-04-19T17:33:30.438Z,2.60
2019-04-19T17:35:34.439Z,3.00
2019-04-19T17:37:38.190Z,3.23
2019-04-19T17:39:42.501Z,3.17
2019-04-19T17:41:46.309Z,3.87
2019-04-19T17:43:50.002Z,3.03
2019-04-19T17:45:54.644Z,2.60
2019-04-19T17:47:58.547Z,2.40
2019-04-19T17:50:02.716Z,3.47
2019-04-19T17:52:12.656Z,2.90
2019-04-19T17:54:18.614Z,3.20
2019-04-19T17:56:17.564Z,2.40
2019-04-19T17:58:23.448Z,2.20
2019-04-19T18:00:28.286Z,2.20
2019-04-19T18:02:32.948Z,2.30
2019-04-19T18:04:37.809Z,2.20
2019-04-19T18:06:44.345Z,2.40
2019-04-19T18:08:48.987Z,2.90
2019-04-19T18:10:55.780Z,3.97
2019-04-19T18:12:59.108Z,5.77
2019-04-19T18:15:03.636Z,3.90
2019-04-19T18:17:08.437Z,3.77
2019-04-19T18:19:16.795Z,3.70
2019-04-19T18:21:17.710Z,3.40
2019-04-19T18:23:31.655Z,2.10
2019-04-19T18:25:33.077Z,2.13
2019-04-19T18:27:32.802Z,2.30
2019-04-19T18:29:38.035Z,2.07
2019-04-19T18:31:48.859Z,2.00
2019-04-19T18:33:58.889Z,2.53
2019-04-19T18:36:03.385Z,2.67
2019-04-19T18:38:01.178Z,4.40
2019-04-19T18:40:07.520Z,3.20
2019-04-19T18:42:11.555Z,2.80
2019-04-19T18:44:22.940Z,4.00
2019-04-19T18:46:20.646Z,3.53
2019-04-19T18:48:24.338Z,4.93
2019-04-19T18:50:28.492Z,4.93
2019-04-19T18:52:42.375Z,3.70
2019-04-19T18:54:48.319Z,3.97
2019-04-19T18:56:44.438Z,4.00
2019-04-19T18:58:48.215Z,4.07
2019-04-19T19:00:54.965Z,3.50
2019-04-19T19:03:01.030Z,3.33
2019-04-19T19:05:05.624Z,3.30
2019-04-19T19:07:14.506Z,4.73
2019-04-19T19:09:16.679Z,3.80
2019-04-19T19:11:21.433Z,4.53
2019-04-19T19:13:28.718Z,21.10
2019-04-19T19:15:38.151Z,13.20
2019-04-19T19:17:36.142Z,14.60
2019-04-19T19:19:41.500Z,16.63
2019-04-19T19:21:48.847Z,18.03
2019-04-19T19:24:15.680Z,20.17
2019-04-19T19:26:10.588Z,22.63
2019-04-19T19:28:06.163Z,23.30
2019-04-19T19:30:11.131Z,16.20
2019-04-19T19:32:17.519Z,19.53
2019-04-19T19:34:25.150Z,15.63
2019-04-19T19:36:35.166Z,17.93
2019-04-19T19:38:36.294Z,11.83
2019-04-19T19:40:55.308Z,9.83
2019-04-19T19:43:07.439Z,7.97
2019-04-19T19:45:02.902Z,7.33
2019-04-19T19:47:25.109Z,6.80
2019-04-19T19:51:23.917Z,5.80
2019-04-19T19:55:39.576Z,5.70
2019-04-19T19:57:39.528Z,5.00
2019-04-19T19:59:37.742Z,5.53
2019-04-19T20:01:49.605Z,7.43
2019-04-19T20:03:46.414Z,5.37
2019-04-19T20:05:47.576Z,5.87
2019-04-19T20:07:52.027Z,5.57
2019-04-19T20:10:03.686Z,6.30
2019-04-19T20:12:07.475Z,6.13
2019-04-19T20:14:09.264Z,5.30
2019-04-19T20:16:18.996Z,5.27
2019-04-19T20:18:18.220Z,5.50
2019-04-19T20:20:28.262Z,6.00
2019-04-19T20:22:34.180Z,5.60
2019-04-19T20:24:45.930Z,5.00
2019-04-19T20:26:50.192Z,4.70
2019-04-19T20:28:45.159Z,4.20
2019-04-19T20:30:52.121Z,5.03
2019-04-19T20:32:59.205Z,5.00
2019-04-19T20:35:05.631Z,4.80
2019-04-19T20:37:08.889Z,3.50
2019-04-19T20:39:11.456Z,3.20
2019-04-19T20:41:16.418Z,3.50
2019-04-19T20:43:35.162Z,3.40
2019-04-19T20:45:34.959Z,3.67
2019-04-19T20:47:33.134Z,3.60
2019-04-19T20:49:42.838Z,4.30
2019-04-19T20:51:58.391Z,3.50
2019-04-19T20:54:03.919Z,3.53
2019-04-19T20:58:19.163Z,3.83
2019-04-19T21:00:17.172Z,3.60
2019-04-19T21:02:28.253Z,3.40
2019-04-19T21:04:27.264Z,3.43
2019-04-19T21:06:35.009Z,3.70
2019-04-19T21:08:41.484Z,3.47
2019-04-19T21:10:47.269Z,3.90
2019-04-19T21:12:47.411Z,4.03
2019-04-19T21:14:52.425Z,3.53
2019-04-19T21:17:00.111Z,3.17
2019-04-19T21:19:06.045Z,3.20
2019-04-19T21:21:11.383Z,3.23
2019-04-19T21:23:18.661Z,2.90
2019-04-19T21:25:23.097Z,2.93
2019-04-19T21:27:28.392Z,2.50
2019-04-19T21:29:32.031Z,2.77
2019-04-19T21:31:41.207Z,3.10
2019-04-19T21:33:45.017Z,3.10
2019-04-19T21:35:53.473Z,3.47
2019-04-19T21:37:51.188Z,2.47
2019-04-19T21:39:56.705Z,2.67
2019-04-19T21:42:04.353Z,2.73
2019-04-19T21:44:11.818Z,2.70
2019-04-19T21:46:14.582Z,2.00
2019-04-19T21:48:18.055Z,2.73
2019-04-19T21:50:29.569Z,2.70
2019-04-19T21:52:29.034Z,2.17
2019-04-19T21:54:32.900Z,2.60
2019-04-19T21:56:41.241Z,2.13
2019-04-19T21:58:48.376Z,2.20
2019-04-19T22:01:04.852Z,2.50
2019-04-19T22:03:05.817Z,2.50
2019-04-19T22:05:10.036Z,2.27
2019-04-19T22:07:15.019Z,2.30
2019-04-19T22:09:21.765Z,2.33
2019-04-19T22:11:24.614Z,1.83
2019-04-19T22:13:33.319Z,2.10
2019-04-19T22:15:35.816Z,2.83
2019-04-19T22:17:39.330Z,2.47
2019-04-19T22:19:43.627Z,2.57
2019-04-19T22:21:48.586Z,2.13
2019-04-19T22:23:54.721Z,2.30
2019-04-19T22:26:11.363Z,2.63
2019-04-19T22:28:05.479Z,2.20
2019-04-19T22:30:11.630Z,2.20
2019-04-19T22:32:18.971Z,2.87
2019-04-19T22:34:22.142Z,2.47
2019-04-19T22:36:30.099Z,2.70
2019-04-19T22:38:31.848Z,2.33
2019-04-19T22:40:36.656Z,2.60
2019-04-19T22:42:50.592Z,2.13
2019-04-19T22:44:45.862Z,2.87
2019-04-19T22:46:52.904Z,3.00
2019-04-19T22:49:00.224Z,2.97
2019-04-19T22:51:04.932Z,3.33
2019-04-19T22:53:05.859Z,3.40
2019-04-19T22:55:16.959Z,3.23
2019-04-19T22:57:19.607Z,3.50
2019-04-19T22:59:21.944Z,3.20
2019-04-19T23:01:28.408Z,3.27
2019-04-19T23:03:37.339Z,3.73
2019-04-19T23:05:43.626Z,4.07
2019-04-19T23:07:50.265Z,3.13
2019-04-19T23:09:50.978Z,3.20
2019-04-19T23:11:55.460Z,3.60
2019-04-19T23:13:59.312Z,3.40
2019-04-19T23:16:07.785Z,3.03
2019-04-19T23:18:13.283Z,3.00
2019-04-19T23:20:18.652Z,3.20
2019-04-19T23:22:22.795Z,3.10
2019-04-19T23:24:25.089Z,3.03
2019-04-19T23:26:49.904Z,3.20
2019-04-19T23:28:39.255Z,3.13
2019-04-19T23:30:39.658Z,3.00
2019-04-19T23:32:43.966Z,3.43
2019-04-19T23:34:51.607Z,3.43
2019-04-19T23:36:59.954Z,3.03
2019-04-19T23:39:05.271Z,3.20
2019-04-19T23:41:04.010Z,3.17
2019-04-19T23:43:08.182Z,3.07
2019-04-19T23:45:12.581Z,2.93
2019-04-19T23:47:16.372Z,2.80
2019-04-19T23:49:21.149Z,3.03
2019-04-19T23:51:25.461Z,3.30
2019-04-19T23:53:33.371Z,3.30
2019-04-19T23:55:34.618Z,3.10
2019-04-19T23:57:45.332Z,3.23
2019-04-19T23:59:50.897Z,3.20
